Time;durP1;ratioP1;P1;durP2;ratioP2;P2;SDS_P1;SDS_P2;PMS_P1;PMS_P2;Temp;Humidity;BMP_temperature;BMP_pressure;BME280_temperature;BME280_humidity;BME280_pressure;Samples;Min_cycle;Max_cycle;Signal;HPM_P1;HPM_P2
2023/01/30 00:01:15;;;;;;;1999.90;999.90;;;3.20;99.90;;;;;;5000643;28;20441;-70
2023/01/30 00:03:43;;;;;;;1999.90;999.90;;;3.20;99.90;;;;;;5004297;28;20926;-71
2023/01/30 00:06:10;;;;;;;1999.90;999.90;;;3.20;99.90;;;;;;5004838;28;20433;-70
2023/01/30 00:08:37;;;;;;;1999.90;999.90;;;3.20;99.90;;;;;;5002708;28;20501;-69
2023/01/30 00:11:04;;;;;;;1999.90;999.90;;;3.10;99.90;;;;;;4997396;28;20500;-71
2023/01/30 00:13:31;;;;;;;1999.90;999.90;;;3.10;99.90;;;;;;4991874;28;20434;-69
2023/01/30 00:15:58;;;;;;;1999.90;999.90;;;3.10;99.90;;;;;;4991756;28;20486;-67
2023/01/30 00:18:24;;;;;;;1999.90;999.90;;;3.10;99.90;;;;;;4988033;28;20919;-71
2023/01/30 00:20:56;;;;;;;1999.90;999.90;;;3.00;99.90;;;;;;4980725;28;20436;-71
2023/01/30 00:23:23;;;;;;;1999.90;999.90;;;3.00;99.90;;;;;;4990557;28;20430;-70
2023/01/30 00:25:49;;;;;;;1999.90;999.90;;;3.00;99.90;;;;;;5002047;28;20498;-71
2023/01/30 00:28:16;;;;;;;1999.90;999.90;;;3.00;99.90;;;;;;5011135;28;21200;-71
2023/01/30 00:30:43;;;;;;;1999.90;999.90;;;3.00;99.90;;;;;;5010621;28;20983;-70
2023/01/30 00:33:10;;;;;;;1999.90;999.90;;;3.10;99.90;;;;;;5011190;28;20484;-68
2023/01/30 00:49:24;;;;;;;1999.90;999.90;;;3.30;99.90;;;;;;5092295;28;20428;-71
2023/01/30 00:51:51;;;;;;;1999.90;999.90;;;3.20;99.90;;;;;;5082763;22;20438;-71
2023/01/30 00:54:17;;;;;;;1999.90;999.90;;;3.10;99.90;;;;;;5045395;28;20462;-71
2023/01/30 00:56:44;;;;;;;1999.90;999.90;;;3.10;99.90;;;;;;5045365;28;20434;-70
2023/01/30 00:59:10;;;;;;;1999.90;999.90;;;3.10;99.90;;;;;;5044620;28;20437;-70
2023/01/30 01:01:37;;;;;;;1999.90;999.90;;;3.10;99.90;;;;;;5040574;28;20490;-70
2023/01/30 01:04:07;;;;;;;1999.90;999.90;;;3.60;99.90;;;;;;5030947;28;20953;-71
2023/01/30 01:06:34;;;;;;;1999.90;999.90;;;3.20;99.90;;;;;;5029585;28;20437;-70
2023/01/30 01:09:00;;;;;;;1999.90;999.90;;;3.70;99.90;;;;;;5036089;28;20434;-70
2023/01/30 01:11:27;;;;;;;1999.90;999.90;;;3.30;99.90;;;;;;5032773;28;20808;-70
2023/01/30 01:13:55;;;;;;;1999.90;999.90;;;3.40;99.90;;;;;;5029169;28;20432;-70
2023/01/30 01:16:22;;;;;;;1999.90;999.90;;;3.40;99.90;;;;;;5029889;28;20434;-71
2023/01/30 01:18:49;;;;;;;1999.90;999.90;;;3.50;99.90;;;;;;5030067;28;20482;-70
2023/01/30 01:21:18;;;;;;;1999.90;999.90;;;3.50;99.90;;;;;;5036479;28;20488;-70
2023/01/30 01:23:49;;;;;;;1999.90;999.90;;;3.50;99.90;;;;;;5029863;28;20979;-70
2023/01/30 01:26:15;;;;;;;1999.90;999.90;;;3.50;99.90;;;;;;5035814;28;20428;-69
2023/01/30 01:28:42;;;;;;;1999.90;999.90;;;3.50;99.90;;;;;;5034755;28;20925;-70
2023/01/30 01:31:09;;;;;;;1999.90;999.90;;;3.40;99.90;;;;;;5035847;28;20473;-70
2023/01/30 01:33:36;;;;;;;1999.90;999.90;;;3.40;99.90;;;;;;5034790;28;20431;-70
2023/01/30 01:36:03;;;;;;;1999.90;999.90;;;3.40;99.90;;;;;;5029926;28;20424;-71
2023/01/30 01:38:31;;;;;;;1999.90;999.90;;;3.40;99.90;;;;;;5043844;28;22192;-71
2023/01/30 01:41:00;;;;;;;1999.90;999.90;;;3.30;99.90;;;;;;5040397;28;20834;-68
2023/01/30 01:43:28;;;;;;;1999.90;999.90;;;3.40;99.90;;;;;;5035201;28;20513;-71
2023/01/30 01:46:00;;;;;;;1999.90;999.90;;;3.40;99.90;;;;;;5025324;28;20428;-70
2023/01/30 01:48:28;;;;;;;1999.90;999.90;;;3.50;99.90;;;;;;5017300;28;20481;-71
2023/01/30 01:50:58;;;;;;;1999.90;999.90;;;3.40;99.90;;;;;;5016000;28;21179;-70
2023/01/30 01:53:29;;;;;;;1999.90;999.90;;;3.50;99.90;;;;;;5015795;28;20479;-71
2023/01/30 01:55:59;;;;;;;1999.90;999.90;;;3.40;99.90;;;;;;5016476;28;20429;-70
2023/01/30 01:58:29;;;;;;;1999.90;999.90;;;3.50;99.90;;;;;;5016305;28;20431;-70
2023/01/30 02:00:58;;;;;;;1999.90;999.90;;;3.50;99.90;;;;;;5019661;28;20438;-70
2023/01/30 02:03:26;;;;;;;1999.90;999.90;;;3.50;99.90;;;;;;5022917;28;20488;-71
2023/01/30 02:05:57;;;;;;;1999.90;999.90;;;3.60;99.90;;;;;;5020366;28;20984;-70
2023/01/30 02:08:28;;;;;;;1999.90;999.90;;;3.70;99.90;;;;;;5018594;28;20442;-70
2023/01/30 02:11:02;;;;;;;1999.90;999.90;;;3.70;99.90;;;;;;5022960;28;20802;-71
2023/01/30 02:13:29;;;;;;;1999.90;999.90;;;3.60;99.90;;;;;;5019701;28;20789;-71
2023/01/30 02:15:57;;;;;;;1999.90;999.90;;;3.60;99.90;;;;;;5014992;28;20428;-70
2023/01/30 02:18:24;;;;;;;1999.90;999.90;;;3.70;99.90;;;;;;5021852;28;20465;-70
2023/01/30 02:21:19;;;;;;;1999.90;999.90;;;3.70;99.90;;;;;;5014831;28;20528;-69
2023/01/30 02:24:14;;;;;;;1999.90;999.90;;;3.70;99.90;;;;;;5017110;28;20490;-71
2023/01/30 02:27:07;;;;;;;1999.90;999.90;;;3.70;99.90;;;;;;5015254;28;20425;-70
2023/01/30 02:30:28;;;;;;;1999.90;999.90;;;3.90;99.90;;;;;;5021288;28;20433;-72
2023/01/30 02:33:06;;;;;;;1999.90;999.90;;;3.80;99.90;;;;;;4940013;29;20467;-71
2023/01/30 02:35:41;;;;;;;1999.90;999.90;;;3.70;99.90;;;;;;5007550;28;20428;-70
2023/01/30 02:38:17;;;;;;;1999.90;999.90;;;3.90;99.90;;;;;;5021619;28;20489;-70
2023/01/30 02:40:52;;;;;;;1999.90;999.90;;;4.10;99.90;;;;;;5015209;28;20487;-69
2023/01/30 02:43:27;;;;;;;1999.90;999.90;;;4.10;99.90;;;;;;5017130;28;20442;-71
2023/01/30 02:46:00;;;;;;;1999.90;999.90;;;4.10;99.90;;;;;;5019661;28;20431;-69
2023/01/30 02:48:34;;;;;;;1999.90;999.90;;;4.00;99.90;;;;;;5021021;28;20430;-70
2023/01/30 02:51:05;;;;;;;1999.90;999.90;;;3.90;99.90;;;;;;5018749;28;20442;-71
2023/01/30 02:53:33;;;;;;;1999.90;999.90;;;3.90;99.90;;;;;;5024583;28;20481;-71
2023/01/30 02:55:59;;;;;;;1999.90;999.90;;;3.90;99.90;;;;;;5015004;28;20925;-69
2023/01/30 02:58:29;;;;;;;1999.90;999.90;;;4.00;99.90;;;;;;5020343;28;20497;-72
2023/01/30 03:01:20;;;;;;;1999.90;999.90;;;3.90;99.90;;;;;;5016490;28;20466;-71
2023/01/30 03:04:26;;;;;;;1999.90;999.90;;;3.80;99.90;;;;;;5015802;28;20440;-71
2023/01/30 03:07:12;;;;;;;1999.90;999.90;;;3.80;99.90;;;;;;5019789;28;20452;-71
2023/01/30 03:09:48;;;;;;;1999.90;999.90;;;3.90;99.90;;;;;;5018076;28;20427;-71
2023/01/30 03:12:20;;;;;;;1999.90;999.90;;;3.80;99.90;;;;;;5017138;28;20438;-70
2023/01/30 03:14:51;;;;;;;1999.90;999.90;;;3.90;99.90;;;;;;5015477;28;20440;-70
2023/01/30 03:17:20;;;;;;;1999.90;999.90;;;4.10;99.90;;;;;;5016830;28;20882;-70
2023/01/30 03:19:48;;;;;;;1999.90;999.90;;;4.20;99.90;;;;;;5019600;28;20438;-67
2023/01/30 03:22:15;;;;;;;1999.90;999.90;;;4.10;99.90;;;;;;5017776;28;20465;-71
2023/01/30 03:24:42;;;;;;;1999.90;999.90;;;4.10;99.90;;;;;;5017719;28;20478;-70
2023/01/30 03:27:11;;;;;;;1999.90;999.90;;;4.10;99.90;;;;;;5018965;28;20471;-70
2023/01/30 03:29:39;;;;;;;1999.90;999.90;;;4.00;99.90;;;;;;5020725;28;20437;-70
2023/01/30 03:32:06;;;;;;;1999.90;999.90;;;3.90;99.90;;;;;;5020372;28;20507;-70
2023/01/30 03:34:33;;;;;;;1999.90;999.90;;;3.90;99.90;;;;;;5016345;28;20431;-70
2023/01/30 03:37:01;;;;;;;1999.90;999.90;;;3.70;99.90;;;;;;5019390;28;20487;-71
2023/01/30 03:39:28;;;;;;;1999.90;999.90;;;3.80;99.90;;;;;;5032878;28;20440;-71
2023/01/30 03:41:54;;;;;;;1999.90;999.90;;;3.90;99.90;;;;;;5046857;28;20453;-71
2023/01/30 03:44:21;;;;;;;1999.90;999.90;;;4.10;99.90;;;;;;5047309;28;20438;-72
2023/01/30 03:46:48;;;;;;;1999.90;999.90;;;4.10;99.90;;;;;;5043236;28;20481;-72
2023/01/30 03:49:15;;;;;;;1999.90;999.90;;;4.10;99.90;;;;;;5028125;28;20435;-71
2023/01/30 03:51:41;;;;;;;1999.90;999.90;;;4.10;99.90;;;;;;5023347;28;20984;-71
2023/01/30 03:54:09;;;;;;;1999.90;999.90;;;4.00;99.90;;;;;;5016448;28;20802;-68
2023/01/30 03:56:36;;;;;;;1999.90;999.90;;;4.00;99.90;;;;;;5020092;28;20547;-70
2023/01/30 03:59:02;;;;;;;1999.90;999.90;;;4.00;99.90;;;;;;5020205;28;20431;-69
2023/01/30 04:01:29;;;;;;;1999.90;999.90;;;4.00;99.90;;;;;;5019740;28;20932;-68
2023/01/30 04:03:55;;;;;;;1999.90;999.90;;;4.00;99.90;;;;;;5015629;28;20495;-67
2023/01/30 04:06:22;;;;;;;1999.90;999.90;;;4.20;99.90;;;;;;5016938;28;20490;-68
2023/01/30 04:08:52;;;;;;;1999.90;999.90;;;4.20;99.90;;;;;;5015210;28;20432;-69
2023/01/30 04:11:20;;;;;;;1999.90;999.90;;;4.20;99.90;;;;;;5024003;28;20435;-71
2023/01/30 04:13:46;;;;;;;1999.90;999.90;;;4.20;99.90;;;;;;5015535;28;20441;-71
2023/01/30 04:16:16;;;;;;;1999.90;999.90;;;4.20;99.90;;;;;;5020648;28;21710;-71
2023/01/30 04:18:43;;;;;;;1999.90;999.90;;;4.30;99.90;;;;;;5015667;28;20435;-71
2023/01/30 04:21:09;;;;;;;1999.90;999.90;;;4.30;99.90;;;;;;5024287;28;20496;-70
2023/01/30 04:23:36;;;;;;;1999.90;999.90;;;4.20;99.90;;;;;;5015922;28;20485;-70
2023/01/30 04:26:03;;;;;;;1999.90;999.90;;;4.50;99.90;;;;;;5015456;28;20436;-70
2023/01/30 04:28:31;;;;;;;1999.90;999.90;;;4.50;99.90;;;;;;5021074;28;20434;-70
2023/01/30 04:30:57;;;;;;;1999.90;999.90;;;4.40;99.90;;;;;;5018486;28;20501;-71
2023/01/30 04:33:24;;;;;;;1999.90;999.90;;;4.30;99.90;;;;;;5017134;28;20530;-71
2023/01/30 04:35:53;;;;;;;1999.90;999.90;;;4.20;99.90;;;;;;5014813;28;20530;-70
2023/01/30 04:38:21;;;;;;;1999.90;999.90;;;4.60;99.90;;;;;;5017213;28;20436;-67
2023/01/30 04:40:48;;;;;;;1999.90;999.90;;;4.20;99.90;;;;;;5019253;28;20429;-71
2023/01/30 04:43:15;;;;;;;1999.90;999.90;;;4.20;99.90;;;;;;5020537;28;20424;-71
2023/01/30 04:45:44;;;;;;;1999.90;999.90;;;4.20;99.90;;;;;;5024347;28;20428;-70
2023/01/30 04:48:11;;;;;;;1999.90;999.90;;;4.20;99.90;;;;;;5017306;28;20443;-71
2023/01/30 04:50:38;;;;;;;1999.90;999.90;;;4.20;99.90;;;;;;5021088;28;20564;-68
2023/01/30 04:53:05;;;;;;;1999.90;999.90;;;4.20;99.90;;;;;;5019547;28;20989;-70
2023/01/30 04:55:32;;;;;;;1999.90;999.90;;;4.20;99.90;;;;;;5016462;28;20528;-71
2023/01/30 04:57:58;;;;;;;1999.90;999.90;;;4.10;99.90;;;;;;5021609;28;20434;-68
2023/01/30 05:00:25;;;;;;;1999.90;999.90;;;4.10;99.90;;;;;;5016836;28;20937;-71
2023/01/30 05:02:54;;;;;;;1999.90;999.90;;;4.10;99.90;;;;;;5021856;28;20441;-71
2023/01/30 05:05:21;;;;;;;1999.90;999.90;;;4.10;99.90;;;;;;5020585;28;20462;-71
2023/01/30 05:07:48;;;;;;;1999.90;999.90;;;4.20;99.90;;;;;;5015545;28;20441;-71
2023/01/30 05:10:15;;;;;;;1999.90;999.90;;;4.20;99.90;;;;;;5021541;28;20441;-71
2023/01/30 05:12:42;;;;;;;1999.90;999.90;;;4.20;99.90;;;;;;5019099;28;20440;-71
2023/01/30 05:15:09;;;;;;;1999.90;999.90;;;4.20;99.90;;;;;;5020215;28;20456;-72
2023/01/30 05:17:36;;;;;;;1999.90;999.90;;;4.30;99.90;;;;;;5021403;28;20502;-70
2023/01/30 05:20:05;;;;;;;1999.90;999.90;;;4.30;99.90;;;;;;5023272;28;20432;-71
2023/01/30 05:22:31;;;;;;;1999.90;999.90;;;4.30;99.90;;;;;;5026550;28;20567;-67
2023/01/30 05:24:58;;;;;;;1999.90;999.90;;;4.30;99.90;;;;;;5020284;28;20428;-68
2023/01/30 05:27:24;;;;;;;1999.90;999.90;;;4.60;99.90;;;;;;5024334;28;20491;-68
2023/01/30 05:29:51;;;;;;;1999.90;999.90;;;4.40;99.90;;;;;;5022372;28;20469;-71
2023/01/30 05:32:19;;;;;;;1999.90;999.90;;;4.30;99.90;;;;;;5022422;28;20482;-71
2023/01/30 05:34:47;;;;;;;1999.90;999.90;;;4.30;99.90;;;;;;5021096;28;20483;-71
2023/01/30 05:37:15;;;;;;;1999.90;999.90;;;4.30;99.90;;;;;;5028381;28;20516;-70
2023/01/30 05:39:42;;;;;;;1999.90;999.90;;;4.40;99.90;;;;;;5019562;28;20436;-69
2023/01/30 05:42:08;;;;;;;1999.90;999.90;;;4.40;99.90;;;;;;5022881;28;20448;-69
2023/01/30 05:44:35;;;;;;;1999.90;999.90;;;4.40;99.90;;;;;;5021452;28;20991;-70
2023/01/30 05:47:02;;;;;;;1999.90;999.90;;;4.40;99.90;;;;;;5022520;28;20488;-71
2023/01/30 05:49:28;;;;;;;1999.90;999.90;;;4.50;99.90;;;;;;5024370;28;20440;-70
2023/01/30 05:51:55;;;;;;;1999.90;999.90;;;4.60;99.90;;;;;;5022718;28;20458;-71
2023/01/30 05:54:23;;;;;;;1999.90;999.90;;;4.50;99.90;;;;;;5020876;28;20438;-71
2023/01/30 05:56:49;;;;;;;1999.90;999.90;;;4.50;99.90;;;;;;5021996;28;20431;-71
2023/01/30 05:59:17;;;;;;;1999.90;999.90;;;4.50;99.90;;;;;;5021443;28;20430;-71
2023/01/30 06:01:44;;;;;;;1999.90;999.90;;;4.60;99.90;;;;;;5026194;28;20437;-71
2023/01/30 06:04:10;;;;;;;1999.90;999.90;;;4.50;99.90;;;;;;5022394;28;20430;-69
2023/01/30 06:06:37;;;;;;;1999.90;999.90;;;4.50;99.90;;;;;;5023720;28;20427;-70
2023/01/30 06:09:04;;;;;;;1999.90;999.90;;;4.50;99.90;;;;;;5023799;28;20922;-71
2023/01/30 06:11:32;;;;;;;1999.90;999.90;;;4.60;99.90;;;;;;5018497;28;20438;-71
2023/01/30 06:13:58;;;;;;;1999.90;999.90;;;4.60;99.90;;;;;;5019734;28;20856;-69
2023/01/30 06:16:25;;;;;;;1999.90;999.90;;;4.70;99.90;;;;;;5024638;28;20588;-67
2023/01/30 06:18:51;;;;;;;1999.90;999.90;;;5.00;99.90;;;;;;5032013;28;20431;-65
2023/01/30 06:21:18;;;;;;;1999.90;999.90;;;4.50;99.90;;;;;;5034908;28;20491;-67
2023/01/30 06:23:45;;;;;;;1999.90;999.90;;;4.50;99.90;;;;;;5032045;28;20888;-67
2023/01/30 06:26:11;;;;;;;1999.90;999.90;;;4.50;99.90;;;;;;5026408;28;20867;-67
2023/01/30 06:28:39;;;;;;;1999.90;999.90;;;4.50;99.90;;;;;;5020121;28;20440;-69
2023/01/30 06:31:07;;;;;;;1999.90;999.90;;;4.60;99.90;;;;;;5025015;28;20438;-68
2023/01/30 06:33:33;;;;;;;1999.90;999.90;;;4.70;99.90;;;;;;5023644;28;20430;-72
2023/01/30 06:36:00;;;;;;;1999.90;999.90;;;4.70;99.90;;;;;;5019236;28;20487;-68
2023/01/30 06:38:27;;;;;;;1999.90;999.90;;;4.70;99.90;;;;;;5023687;28;20431;-69
2023/01/30 06:40:53;;;;;;;1999.90;999.90;;;4.70;99.90;;;;;;5021391;28;20474;-68
2023/01/30 06:43:20;;;;;;;1999.90;999.90;;;4.70;99.90;;;;;;5021121;28;20435;-68
2023/01/30 06:45:48;;;;;;;1999.90;999.90;;;4.60;99.90;;;;;;5018261;28;20432;-68
2023/01/30 06:48:14;;;;;;;1999.90;999.90;;;4.60;99.90;;;;;;5019763;28;21151;-68
2023/01/30 06:50:41;;;;;;;1999.90;999.90;;;4.70;99.90;;;;;;5018876;28;20484;-69
2023/01/30 06:53:09;;;;;;;1999.90;999.90;;;4.80;99.90;;;;;;5022496;28;20987;-69
2023/01/30 06:55:37;;;;;;;1999.90;999.90;;;4.80;99.90;;;;;;5021977;28;20433;-70
2023/01/30 06:58:05;;;;;;;1999.90;999.90;;;4.90;99.90;;;;;;5022953;28;20473;-71
2023/01/30 07:00:32;;;;;;;1999.90;999.90;;;4.90;99.90;;;;;;5023209;28;20435;-70
2023/01/30 07:03:00;;;;;;;1999.90;999.90;;;4.90;99.90;;;;;;5023660;28;20818;-67
2023/01/30 07:05:28;;;;;;;1999.90;999.90;;;4.80;99.90;;;;;;5024672;28;20435;-69
2023/01/30 07:07:55;;;;;;;1999.90;999.90;;;4.90;99.90;;;;;;5020915;28;20422;-69
2023/01/30 07:10:22;;;;;;;1999.90;999.90;;;5.40;99.90;;;;;;5025322;28;20422;-70
2023/01/30 07:12:48;;;;;;;1999.90;999.90;;;5.00;99.90;;;;;;5030531;28;20431;-67
2023/01/30 07:15:15;;;;;;;1999.90;999.90;;;5.20;99.90;;;;;;5016387;28;20493;-70
2023/01/30 07:17:42;;;;;;;1999.90;999.90;;;4.90;99.90;;;;;;5028491;28;20427;-70
2023/01/30 07:20:11;;;;;;;1999.90;999.90;;;4.80;99.90;;;;;;5027202;28;20493;-68
2023/01/30 07:22:38;;;;;;;1999.90;999.90;;;4.90;99.90;;;;;;5023877;28;20931;-70
2023/01/30 07:25:06;;;;;;;1999.90;999.90;;;5.00;99.90;;;;;;5024560;28;20571;-70
2023/01/30 07:27:33;;;;;;;1999.90;999.90;;;5.00;99.90;;;;;;5021040;28;20430;-69
2023/01/30 07:29:59;;;;;;;1999.90;999.90;;;5.00;99.90;;;;;;5028774;28;20851;-69
2023/01/30 07:32:26;;;;;;;1999.90;999.90;;;5.10;99.90;;;;;;5024657;28;20430;-70
2023/01/30 07:34:53;;;;;;;1999.90;999.90;;;5.10;99.90;;;;;;5023838;28;20443;-68
2023/01/30 07:37:21;;;;;;;1999.90;999.90;;;5.00;99.90;;;;;;5020812;28;20462;-70
2023/01/30 07:39:47;;;;;;;1999.90;999.90;;;4.90;99.90;;;;;;5024293;28;20440;-69
2023/01/30 07:42:14;;;;;;;1999.90;999.90;;;5.00;99.90;;;;;;5024862;28;20427;-67
2023/01/30 07:44:40;;;;;;;1999.90;999.90;;;5.20;99.90;;;;;;5028899;28;20845;-69
2023/01/30 07:47:07;;;;;;;1999.90;999.90;;;5.10;99.90;;;;;;5025239;28;20431;-71
2023/01/30 07:49:33;;;;;;;1999.90;999.90;;;5.20;99.90;;;;;;5024142;28;20924;-67
2023/01/30 07:52:00;;;;;;;1999.90;999.90;;;5.30;99.90;;;;;;5019002;28;20859;-70
2023/01/30 07:54:28;;;;;;;1999.90;999.90;;;5.30;99.90;;;;;;5024517;28;20435;-67
2023/01/30 07:56:54;;;;;;;1999.90;999.90;;;5.20;99.90;;;;;;5024240;28;20432;-66
2023/01/30 07:59:21;;;;;;;1999.90;999.90;;;5.20;99.90;;;;;;5025493;28;20496;-68
2023/01/30 08:01:48;;;;;;;1999.90;999.90;;;5.40;99.90;;;;;;5026515;28;20507;-69
2023/01/30 08:04:14;;;;;;;1999.90;999.90;;;5.60;99.90;;;;;;5023043;28;20430;-69
2023/01/30 08:06:41;;;;;;;1999.90;999.90;;;5.70;99.90;;;;;;5026576;28;20431;-70
2023/01/30 08:09:08;;;;;;;1999.90;999.90;;;5.70;99.90;;;;;;5023245;28;20435;-70
2023/01/30 08:11:36;;;;;;;1999.90;999.90;;;5.90;99.90;;;;;;5029754;28;20973;-70
2023/01/30 08:14:03;;;;;;;1999.90;999.90;;;5.80;99.90;;;;;;5025910;28;20493;-69
2023/01/30 08:16:31;;;;;;;1999.90;999.90;;;5.80;99.90;;;;;;5024038;28;20435;-69
2023/01/30 08:18:57;;;;;;;1999.90;999.90;;;5.90;99.90;;;;;;5020755;28;20515;-68
2023/01/30 08:21:24;;;;;;;1999.90;999.90;;;6.00;99.90;;;;;;5018904;28;20431;-69
2023/01/30 08:23:51;;;;;;;1999.90;999.90;;;6.00;99.90;;;;;;5025296;28;20462;-69
2023/01/30 08:26:17;;;;;;;1999.90;999.90;;;6.00;99.90;;;;;;5024747;28;20434;-68
2023/01/30 08:28:45;;;;;;;1999.90;999.90;;;5.60;99.90;;;;;;5021765;28;20514;-69
2023/01/30 08:31:13;;;;;;;1999.90;999.90;;;5.40;99.90;;;;;;5025651;28;20438;-69
2023/01/30 08:33:39;;;;;;;1999.90;999.90;;;5.50;99.90;;;;;;5022593;28;20485;-68
2023/01/30 08:36:07;;;;;;;1999.90;999.90;;;5.10;99.90;;;;;;5024473;28;20499;-69
2023/01/30 08:38:33;;;;;;;1999.90;999.90;;;4.90;99.90;;;;;;5023704;28;20483;-68
2023/01/30 08:41:00;;;;;;;1999.90;999.90;;;4.90;99.90;;;;;;5019062;28;20998;-69
2023/01/30 08:43:27;;;;;;;1999.90;999.90;;;5.00;99.90;;;;;;5023950;28;20427;-69
2023/01/30 08:45:56;;;;;;;1999.90;999.90;;;5.30;99.90;;;;;;5025242;28;20434;-69
2023/01/30 08:48:23;;;;;;;1999.90;999.90;;;5.40;99.90;;;;;;5024021;28;20500;-69
2023/01/30 08:50:52;;;;;;;1999.90;999.90;;;5.50;99.90;;;;;;5023603;28;20476;-69
2023/01/30 08:53:19;;;;;;;1999.90;999.90;;;5.70;99.90;;;;;;5026862;28;20435;-70
2023/01/30 08:55:45;;;;;;;1999.90;999.90;;;5.80;99.90;;;;;;5029516;28;20900;-69
2023/01/30 08:58:12;;;;;;;1999.90;999.90;;;6.20;99.90;;;;;;5034024;28;20509;-70
2023/01/30 09:00:43;;;;;;;1999.90;999.90;;;5.90;99.90;;;;;;5033239;28;20488;-70
2023/01/30 09:03:12;;;;;;;1999.90;999.90;;;6.00;99.90;;;;;;5033677;28;20430;-70
2023/01/30 09:05:38;;;;;;;1999.90;999.90;;;6.20;99.90;;;;;;5026710;28;20490;-70
2023/01/30 09:08:05;;;;;;;1999.90;999.90;;;6.30;99.90;;;;;;5022475;28;20423;-71
2023/01/30 09:10:32;;;;;;;1999.90;999.90;;;6.40;99.90;;;;;;5031231;28;20567;-66
2023/01/30 09:12:58;;;;;;;1999.90;999.90;;;6.50;99.90;;;;;;5031623;28;20438;-69
2023/01/30 09:15:25;;;;;;;1999.90;999.90;;;6.70;99.90;;;;;;5030912;28;20461;-70
2023/01/30 09:17:52;;;;;;;1999.90;999.90;;;6.70;99.90;;;;;;5033236;28;21186;-70
2023/01/30 09:20:20;;;;;;;1999.90;999.90;;;6.70;99.90;;;;;;5033037;28;20949;-72
2023/01/30 09:22:47;;;;;;;1999.90;999.90;;;6.90;99.90;;;;;;5033282;28;20415;-71
2023/01/30 09:25:13;;;;;;;1999.90;999.90;;;7.30;99.90;;;;;;5033355;28;20445;-72
2023/01/30 09:27:43;;;;;;;1999.90;999.90;;;7.00;99.90;;;;;;5033624;28;20530;-70
2023/01/30 09:30:11;;;;;;;1999.90;999.90;;;6.90;99.90;;;;;;5031584;28;20467;-71
2023/01/30 09:32:37;;;;;;;1999.90;999.90;;;6.80;99.90;;;;;;5026071;28;21655;-70
2023/01/30 09:35:04;;;;;;;1999.90;999.90;;;6.70;99.90;;;;;;5030179;28;20427;-69
2023/01/30 09:37:32;;;;;;;1999.90;999.90;;;6.70;99.90;;;;;;5027451;28;20447;-70
2023/01/30 09:39:59;;;;;;;1999.90;999.90;;;6.70;99.90;;;;;;5027048;28;20463;-70
2023/01/30 09:42:45;;;;;;;1999.90;999.90;;;6.50;99.90;;;;;;5026617;28;20924;-71
2023/01/30 09:45:37;;;;;;;1999.90;999.90;;;6.60;99.90;;;;;;5028012;28;20440;-70
2023/01/30 09:48:11;;;;;;;1999.90;999.90;;;6.50;99.90;;;;;;5017481;28;20424;-70
2023/01/30 09:51:01;;;;;;;1999.90;999.90;;;6.40;99.90;;;;;;5028405;28;20912;-70
2023/01/30 09:53:36;;;;;;;1999.90;999.90;;;6.40;99.90;;;;;;5032920;28;20418;-67
2023/01/30 09:56:03;;;;;;;1999.90;999.90;;;6.40;99.90;;;;;;5032841;28;20757;-71
2023/01/30 09:58:42;;;;;;;1999.90;999.90;;;6.30;99.90;;;;;;5033091;28;20517;-70
2023/01/30 10:01:18;;;;;;;1999.90;999.90;;;6.80;99.90;;;;;;5028579;28;20437;-70
2023/01/30 10:03:55;;;;;;;1999.90;999.90;;;6.30;99.90;;;;;;5025981;28;20429;-70
2023/01/30 10:06:22;;;;;;;1999.90;999.90;;;6.30;99.90;;;;;;5024247;28;20419;-71
2023/01/30 10:08:57;;;;;;;1999.90;999.90;;;6.60;99.90;;;;;;5030733;28;20411;-70
2023/01/30 10:11:42;;;;;;;1999.90;999.90;;;6.50;99.90;;;;;;5024667;28;20419;-69
2023/01/30 10:14:21;;;;;;;1999.90;999.90;;;6.50;99.90;;;;;;5032772;28;20474;-71
2023/01/30 10:16:57;;;;;;;1999.90;999.90;;;6.50;99.90;;;;;;5032270;28;20443;-70
2023/01/30 10:19:46;;;;;;;1999.90;999.90;;;6.70;99.90;;;;;;5031865;28;20517;-70
2023/01/30 10:22:23;;;;;;;1999.90;999.90;;;6.70;99.90;;;;;;5026600;28;20484;-69
2023/01/30 10:25:02;;;;;;;1999.90;999.90;;;6.70;99.90;;;;;;5032379;28;20415;-70
2023/01/30 10:27:32;;;;;;;1999.90;999.90;;;6.70;99.90;;;;;;5028628;28;20431;-69
2023/01/30 10:30:03;;;;;;;1999.90;999.90;;;7.00;99.90;;;;;;5021069;28;20436;-70
2023/01/30 10:32:32;;;;;;;1999.90;999.90;;;7.10;99.90;;;;;;5023068;28;20986;-69
2023/01/30 10:35:06;;;;;;;1999.90;999.90;;;7.00;99.90;;;;;;5021543;28;20441;-69
2023/01/30 10:37:38;;;;;;;1999.90;999.90;;;7.00;99.90;;;;;;5015623;28;20470;-71
2023/01/30 10:40:17;;;;;;;1999.90;999.90;;;6.80;99.90;;;;;;5018850;28;20519;-69
2023/01/30 10:42:48;;;;;;;1999.90;999.90;;;6.60;99.90;;;;;;5020677;28;20809;-70
2023/01/30 10:45:19;;;;;;;1999.90;999.90;;;6.10;99.90;;;;;;5017937;28;20916;-69
2023/01/30 10:47:59;;;;;;;1999.90;999.90;;;5.90;99.90;;;;;;5016918;28;20455;-69
2023/01/30 10:50:34;;;;;;;1999.90;999.90;;;6.30;99.90;;;;;;5021532;28;20434;-70
2023/01/30 10:53:10;;;;;;;1999.90;999.90;;;5.90;99.90;;;;;;5019748;28;20497;-70
2023/01/30 10:55:43;;;;;;;1999.90;999.90;;;6.10;99.90;;;;;;5025320;28;20818;-70
2023/01/30 10:58:17;;;;;;;1999.90;999.90;;;6.30;99.90;;;;;;5016946;28;20482;-70
2023/01/30 11:00:49;;;;;;;1999.90;999.90;;;6.60;99.90;;;;;;5016592;28;20436;-71
2023/01/30 11:03:26;;;;;;;1999.90;999.90;;;6.80;99.90;;;;;;5018066;28;20439;-71
2023/01/30 11:05:58;;;;;;;1999.90;999.90;;;6.70;99.90;;;;;;5015955;28;20520;-68
2023/01/30 11:08:27;;;;;;;1999.90;999.90;;;6.70;99.90;;;;;;5017907;28;20440;-70
2023/01/30 11:10:56;;;;;;;1999.90;999.90;;;6.70;99.90;;;;;;5020243;28;20929;-71
2023/01/30 11:13:29;;;;;;;1999.90;999.90;;;6.70;99.90;;;;;;5017155;28;20528;-69
2023/01/30 11:15:58;;;;;;;1999.90;999.90;;;6.80;99.90;;;;;;5023808;28;20921;-72
2023/01/30 11:18:25;;;;;;;1999.90;999.90;;;7.20;99.90;;;;;;5021714;28;20996;-73
2023/01/30 11:21:04;;;;;;;1999.90;999.90;;;7.60;99.90;;;;;;5015349;28;20490;-71
2023/01/30 11:23:35;;;;;;;1999.90;999.90;;;7.60;99.90;;;;;;5021567;28;20488;-73
2023/01/30 11:26:04;;;;;;;1999.90;999.90;;;7.50;99.90;;;;;;5020685;28;20440;-69
2023/01/30 11:28:35;;;;;;;1999.90;999.90;;;7.60;99.90;;;;;;5021971;28;20427;-71
2023/01/30 11:31:02;;;;;;;1999.90;999.90;;;7.60;99.90;;;;;;5020511;28;20484;-72
2023/01/30 11:33:33;;;;;;;1999.90;999.90;;;7.80;99.90;;;;;;5019582;28;20912;-72
2023/01/30 11:36:01;;;;;;;1999.90;999.90;;;7.80;99.90;;;;;;5019512;28;20439;-71
2023/01/30 11:38:29;;;;;;;1999.90;999.90;;;7.70;99.90;;;;;;5022208;28;20469;-69
2023/01/30 11:41:16;;;;;;;1999.90;999.90;;;7.80;99.90;;;;;;5021835;28;20426;-72
2023/01/30 11:43:42;;;;;;;1999.90;999.90;;;8.00;99.90;;;;;;5023807;28;20469;-70
2023/01/30 11:46:12;;;;;;;1999.90;999.90;;;8.40;99.90;;;;;;5023774;28;20421;-71
2023/01/30 11:48:47;;;;;;;1999.90;999.90;;;8.20;99.90;;;;;;5017045;28;20458;-72
2023/01/30 11:51:14;;;;;;;1999.90;999.90;;;8.20;99.90;;;;;;5020382;28;20442;-71
2023/01/30 11:53:46;;;;;;;1999.90;999.90;;;8.30;99.90;;;;;;5020384;28;20462;-72
2023/01/30 11:56:21;;;;;;;1999.90;999.90;;;8.40;99.90;;;;;;5021131;28;20495;-71
2023/01/30 11:58:56;;;;;;;1999.90;999.90;;;8.40;99.90;;;;;;5015802;28;20871;-71
2023/01/30 12:01:26;;;;;;;1999.90;999.90;;;8.40;99.90;;;;;;5024126;28;20434;-72
2023/01/30 12:03:55;;;;;;;1999.90;999.90;;;8.10;99.90;;;;;;5016213;28;20510;-72
2023/01/30 12:06:23;;;;;;;1999.90;999.90;;;7.90;99.90;;;;;;5016792;28;20485;-71
2023/01/30 12:08:54;;;;;;;1999.90;999.90;;;8.00;99.90;;;;;;5015748;28;20433;-71
2023/01/30 12:11:28;;;;;;;1999.90;999.90;;;7.20;99.90;;;;;;5021052;28;20462;-68
2023/01/30 12:13:58;;;;;;;1999.90;999.90;;;6.70;99.90;;;;;;5016284;28;20479;-70
2023/01/30 12:16:35;;;;;;;1999.90;999.90;;;6.50;99.90;;;;;;5018145;28;20495;-70
2023/01/30 12:19:12;;;;;;;1999.90;999.90;;;6.50;99.90;;;;;;5019402;28;20490;-70
2023/01/30 12:21:47;;;;;;;1999.90;999.90;;;6.50;99.90;;;;;;5024316;28;20493;-71
2023/01/30 12:24:20;;;;;;;1999.90;999.90;;;6.50;99.90;;;;;;5022678;28;20439;-71
2023/01/30 12:26:53;;;;;;;1999.90;999.90;;;6.90;99.90;;;;;;5019992;28;20943;-69
2023/01/30 12:29:27;;;;;;;1999.90;999.90;;;7.20;99.90;;;;;;5016887;28;20501;-71
2023/01/30 12:32:05;;;;;;;1999.90;999.90;;;7.30;99.90;;;;;;5016173;28;20432;-71
2023/01/30 12:34:31;;;;;;;1999.90;999.90;;;7.50;99.90;;;;;;5018126;28;20489;-70